createdAt,value
2022-08-07T00:01:44.755Z,1.80
2022-08-07T00:04:03.415Z,1.50
2022-08-07T00:06:33.517Z,1.90
2022-08-07T00:09:16.087Z,1.55
2022-08-07T00:11:47.938Z,1.63
2022-08-07T00:14:29.869Z,1.90
2022-08-07T00:19:26.063Z,1.60
2022-08-07T00:22:02.209Z,1.80
2022-08-07T00:24:31.569Z,1.60
2022-08-07T00:27:07.661Z,1.58
2022-08-07T00:29:37.219Z,1.67
2022-08-07T00:32:06.807Z,1.83
2022-08-07T00:34:35.635Z,1.50
2022-08-07T00:37:04.948Z,2.10
2022-08-07T00:39:35.593Z,1.90
2022-08-07T00:42:05.328Z,1.85
2022-08-07T00:44:33.793Z,1.50
2022-08-07T00:47:06.518Z,1.85
2022-08-07T00:50:19.096Z,1.50
2022-08-07T00:52:33.214Z,1.58
2022-08-07T00:55:04.950Z,2.05
2022-08-07T00:57:37.827Z,1.67
2022-08-07T01:00:15.968Z,1.75
2022-08-07T01:02:43.609Z,2.00
2022-08-07T01:05:19.086Z,1.55
2022-08-07T01:07:48.263Z,1.90
2022-08-07T01:10:18.344Z,1.60
2022-08-07T01:12:54.030Z,1.60
2022-08-07T01:15:22.783Z,1.55
2022-08-07T01:18:03.173Z,1.30
2022-08-07T01:20:34.217Z,1.80
2022-08-07T01:23:12.978Z,1.70
2022-08-07T01:25:55.311Z,1.45
2022-08-07T01:28:23.561Z,1.45
2022-08-07T01:30:52.030Z,1.63
2022-08-07T01:33:19.236Z,1.70
2022-08-07T01:35:53.360Z,1.42
2022-08-07T01:38:25.167Z,1.45
2022-08-07T01:41:00.617Z,1.75
2022-08-07T01:43:34.656Z,1.40
2022-08-07T01:46:05.718Z,1.58
2022-08-07T01:48:35.799Z,1.50
2022-08-07T01:52:02.832Z,1.92
2022-08-07T01:54:09.365Z,1.67
2022-08-07T01:56:53.703Z,1.70
2022-08-07T01:59:30.890Z,1.23
2022-08-07T02:02:12.127Z,1.42
2022-08-07T02:05:04.662Z,1.20
2022-08-07T02:07:36.166Z,1.40
2022-08-07T02:10:14.395Z,1.60
2022-08-07T02:12:42.428Z,1.30
2022-08-07T02:15:13.877Z,1.40
2022-08-07T02:17:41.357Z,1.20
2022-08-07T02:20:23.298Z,1.40
2022-08-07T02:22:54.791Z,1.80
2022-08-07T02:25:22.013Z,1.35
2022-08-07T02:28:08.872Z,1.50
2022-08-07T02:30:38.682Z,1.52
2022-08-07T02:33:09.395Z,1.45
2022-08-07T02:36:29.970Z,1.38
2022-08-07T02:38:31.649Z,1.50
2022-08-07T02:40:59.515Z,1.65
2022-08-07T02:43:27.987Z,1.20
2022-08-07T02:45:58.938Z,1.30
2022-08-07T02:48:28.238Z,1.23
2022-08-07T02:50:55.784Z,1.50
2022-08-07T02:53:38.295Z,1.40
2022-08-07T02:56:12.879Z,1.55
2022-08-07T02:58:47.307Z,1.50
2022-08-07T03:01:18.463Z,1.50
2022-08-07T03:03:50.606Z,1.63
2022-08-07T03:06:25.642Z,1.50
2022-08-07T03:09:00.906Z,1.50
2022-08-07T03:11:28.427Z,1.80
2022-08-07T03:13:57.484Z,1.70
2022-08-07T03:16:28.472Z,1.40
2022-08-07T03:18:58.418Z,1.58
2022-08-07T03:21:25.599Z,2.35
2022-08-07T03:24:20.116Z,1.60
2022-08-07T03:26:50.898Z,1.48
2022-08-07T03:29:20.548Z,1.60
2022-08-07T03:31:50.062Z,1.63
2022-08-07T03:34:18.702Z,1.25
2022-08-07T03:36:50.162Z,1.50
2022-08-07T03:39:17.634Z,1.23
2022-08-07T03:42:05.496Z,1.63
2022-08-07T03:44:34.662Z,1.52
2022-08-07T03:47:13.187Z,1.50
2022-08-07T03:49:51.927Z,1.85
2022-08-07T03:52:26.390Z,1.23
2022-08-07T03:55:07.019Z,1.92
2022-08-07T03:58:35.501Z,1.45
2022-08-07T04:00:30.482Z,1.83
2022-08-07T04:03:04.041Z,1.92
2022-08-07T04:05:40.443Z,1.77
2022-08-07T04:08:13.011Z,1.40
2022-08-07T04:10:54.353Z,1.70
2022-08-07T04:14:10.347Z,1.38
2022-08-07T04:16:31.597Z,1.63
2022-08-07T04:19:03.859Z,1.60
2022-08-07T04:21:39.977Z,1.98
2022-08-07T04:24:34.300Z,1.60
2022-08-07T04:27:06.056Z,1.60
2022-08-07T04:29:58.212Z,1.25
2022-08-07T04:32:34.057Z,1.77
2022-08-07T04:35:05.354Z,1.52
2022-08-07T04:37:40.331Z,1.58
2022-08-07T04:40:19.947Z,1.75
2022-08-07T04:42:46.950Z,1.10
2022-08-07T04:45:57.639Z,1.58
2022-08-07T04:48:13.065Z,1.50
2022-08-07T04:50:45.426Z,1.17
2022-08-07T04:54:01.661Z,1.58
2022-08-07T04:58:16.379Z,1.70
2022-08-07T05:00:11.220Z,1.50
2022-08-07T05:02:54.415Z,1.10
2022-08-07T05:05:53.113Z,1.10
2022-08-07T05:09:02.336Z,1.15
2022-08-07T05:11:57.231Z,1.38
2022-08-07T05:14:56.079Z,1.30
2022-08-07T05:17:51.466Z,1.20
2022-08-07T05:20:19.211Z,1.15
2022-08-07T05:22:48.862Z,1.13
2022-08-07T05:25:25.945Z,1.30
2022-08-07T05:28:20.031Z,1.20
2022-08-07T05:30:48.293Z,0.80
2022-08-07T05:33:15.299Z,0.98
2022-08-07T05:35:45.436Z,1.35
2022-08-07T05:38:58.435Z,1.00
2022-08-07T05:41:02.528Z,1.05
2022-08-07T05:44:08.506Z,1.23
2022-08-07T05:46:26.851Z,1.20
2022-08-07T05:48:59.299Z,1.58
2022-08-07T05:51:31.587Z,1.60
2022-08-07T05:54:09.727Z,5.90
2022-08-07T05:56:51.477Z,1.73
2022-08-07T05:59:19.389Z,1.50
2022-08-07T06:01:48.554Z,1.35
2022-08-07T06:04:17.336Z,1.40
2022-08-07T06:06:46.153Z,1.20
2022-08-07T06:09:15.644Z,1.05
2022-08-07T06:11:42.583Z,2.05
2022-08-07T06:14:12.257Z,1.70
2022-08-07T06:16:41.018Z,1.55
2022-08-07T06:19:07.944Z,1.77
2022-08-07T06:22:14.841Z,1.80
2022-08-07T06:24:38.095Z,1.88
2022-08-07T06:27:44.003Z,1.48
2022-08-07T06:30:32.226Z,1.50
2022-08-07T06:32:59.556Z,2.03
2022-08-07T06:35:39.087Z,1.85
2022-08-07T06:38:20.044Z,1.73
2022-08-07T06:40:50.533Z,1.77
2022-08-07T06:43:21.182Z,2.03
2022-08-07T06:45:49.342Z,2.10
2022-08-07T06:48:16.329Z,2.08
2022-08-07T06:50:53.231Z,1.75
2022-08-07T06:55:28.604Z,1.92
2022-08-07T06:56:15.126Z,1.80
2022-08-07T07:00:14.592Z,1.92
2022-08-07T07:01:33.329Z,2.08
2022-08-07T07:04:28.342Z,1.85
2022-08-07T07:07:01.370Z,1.75
2022-08-07T07:09:31.834Z,2.15
2022-08-07T07:12:18.094Z,2.03
2022-08-07T07:14:48.787Z,2.13
2022-08-07T07:17:45.413Z,2.30
2022-08-07T07:20:20.690Z,2.20
2022-08-07T07:24:09.519Z,1.88
2022-08-07T07:26:35.418Z,1.98
2022-08-07T07:28:48.521Z,1.73
2022-08-07T07:31:44.466Z,1.92
2022-08-07T07:34:18.432Z,2.25
2022-08-07T07:39:22.193Z,1.50
2022-08-07T07:42:08.679Z,2.10
2022-08-07T07:44:40.420Z,2.13
2022-08-07T07:47:15.714Z,2.05
2022-08-07T07:50:35.484Z,1.73
2022-08-07T07:52:37.119Z,2.10
2022-08-07T07:55:04.422Z,2.60
2022-08-07T07:57:43.971Z,2.60
2022-08-07T08:00:29.118Z,2.25
2022-08-07T08:04:09.642Z,2.03
2022-08-07T08:06:03.920Z,2.20
2022-08-07T08:08:37.042Z,1.95
2022-08-07T08:11:08.422Z,2.33
2022-08-07T08:13:53.197Z,2.78
2022-08-07T08:16:35.606Z,1.98
2022-08-07T08:19:09.834Z,2.45
2022-08-07T08:22:07.848Z,2.22
2022-08-07T08:25:18.872Z,2.75
2022-08-07T08:27:56.604Z,2.58
2022-08-07T08:30:25.056Z,2.15
2022-08-07T08:32:53.709Z,2.38
2022-08-07T08:35:23.574Z,2.30
2022-08-07T08:38:01.266Z,2.28
2022-08-07T08:40:38.254Z,2.38
2022-08-07T08:43:21.391Z,2.33
2022-08-07T08:46:09.878Z,2.70
2022-08-07T08:48:54.223Z,2.28
2022-08-07T08:54:24.211Z,2.25
2022-08-07T08:56:52.867Z,2.92
2022-08-07T08:59:28.547Z,2.40
2022-08-07T09:02:14.331Z,2.25
2022-08-07T09:04:57.586Z,2.50
2022-08-07T09:07:58.159Z,3.05
2022-08-07T09:10:44.301Z,1.92
2022-08-07T09:13:38.279Z,2.65
2022-08-07T09:16:29.827Z,2.22
2022-08-07T09:19:27.114Z,1.98
2022-08-07T09:22:22.873Z,2.30
2022-08-07T09:25:14.626Z,2.13
2022-08-07T09:28:03.594Z,2.90
2022-08-07T09:30:52.870Z,2.45
2022-08-07T09:33:56.705Z,2.42
2022-08-07T09:36:46.646Z,2.05
2022-08-07T09:39:54.474Z,2.47
2022-08-07T09:42:29.237Z,2.22
2022-08-07T09:47:26.193Z,2.03
2022-08-07T09:48:14.348Z,2.38
2022-08-07T09:51:14.614Z,1.85
2022-08-07T09:54:03.266Z,2.38
2022-08-07T09:56:52.095Z,2.30
2022-08-07T09:59:46.168Z,2.30
2022-08-07T10:02:55.093Z,1.92
2022-08-07T10:05:59.560Z,2.40
2022-08-07T10:08:59.062Z,2.00
2022-08-07T10:12:02.249Z,1.63
2022-08-07T10:14:54.210Z,1.73
2022-08-07T10:18:26.522Z,2.22
2022-08-07T10:21:19.580Z,2.50
2022-08-07T10:24:05.046Z,2.38
2022-08-07T10:27:13.864Z,1.92
2022-08-07T10:30:04.479Z,1.77
2022-08-07T10:32:53.830Z,1.83
2022-08-07T10:35:57.530Z,1.75
2022-08-07T10:41:46.396Z,1.45
2022-08-07T10:44:39.039Z,1.42
2022-08-07T10:47:52.701Z,1.23
2022-08-07T10:52:56.630Z,1.48
2022-08-07T10:55:37.990Z,1.50
2022-08-07T10:58:33.030Z,1.70
2022-08-07T11:01:35.556Z,1.92
2022-08-07T11:04:34.912Z,1.80
2022-08-07T11:07:58.879Z,1.70
2022-08-07T11:10:41.671Z,1.40
2022-08-07T11:14:44.214Z,1.50
2022-08-07T11:16:19.919Z,1.10
2022-08-07T11:18:52.303Z,1.10
2022-08-07T11:21:42.748Z,0.97
2022-08-07T11:24:26.235Z,1.30
2022-08-07T11:27:07.656Z,1.13
2022-08-07T11:30:17.720Z,1.23
2022-08-07T11:32:53.555Z,1.15
2022-08-07T11:35:35.143Z,1.15
2022-08-07T11:38:37.271Z,1.10
2022-08-07T11:41:18.192Z,1.20
2022-08-07T11:44:11.875Z,1.42
2022-08-07T11:46:57.987Z,0.95
2022-08-07T11:50:11.459Z,0.95
2022-08-07T11:52:37.895Z,1.13
2022-08-07T11:55:18.707Z,0.95
2022-08-07T11:58:33.146Z,1.27
2022-08-07T12:02:00.493Z,1.02
2022-08-07T12:04:46.112Z,0.93
2022-08-07T12:07:38.643Z,1.00
2022-08-07T12:12:53.657Z,1.00
2022-08-07T12:15:46.412Z,0.95
2022-08-07T12:18:29.682Z,1.02
2022-08-07T12:22:35.986Z,0.80
2022-08-07T12:24:37.515Z,1.17
2022-08-07T12:27:05.291Z,0.82
2022-08-07T12:29:51.765Z,0.75
2022-08-07T12:32:50.288Z,1.00
2022-08-07T12:35:18.049Z,0.90
2022-08-07T12:38:09.739Z,0.80
2022-08-07T12:40:47.551Z,0.98
2022-08-07T12:44:01.562Z,0.90
2022-08-07T12:46:10.543Z,1.00
2022-08-07T12:49:10.038Z,0.93
2022-08-07T12:52:23.311Z,1.00
2022-08-07T12:55:05.676Z,0.80
2022-08-07T12:58:00.179Z,0.80
2022-08-07T13:00:50.329Z,0.80
2022-08-07T13:03:59.303Z,0.70
2022-08-07T13:07:01.267Z,0.82
2022-08-07T13:10:22.029Z,0.70
2022-08-07T13:12:58.501Z,0.90
2022-08-07T13:15:44.565Z,0.80
2022-08-07T13:18:26.324Z,0.75
2022-08-07T13:21:50.275Z,0.80
2022-08-07T13:24:30.826Z,0.75
2022-08-07T13:28:11.504Z,0.75
2022-08-07T13:30:40.401Z,0.80
2022-08-07T13:34:31.450Z,0.63
2022-08-07T13:36:26.247Z,0.73
2022-08-07T13:39:13.162Z,0.70
2022-08-07T13:41:54.997Z,0.70
2022-08-07T13:44:26.415Z,0.70
2022-08-07T13:46:56.876Z,0.93
2022-08-07T13:50:34.066Z,0.90
2022-08-07T13:52:33.526Z,0.70
2022-08-07T13:54:59.146Z,0.68
2022-08-07T13:57:38.123Z,0.60
2022-08-07T14:00:08.137Z,0.80
2022-08-07T14:02:55.430Z,0.80
2022-08-07T14:05:29.081Z,0.70
2022-08-07T14:08:05.299Z,0.80
2022-08-07T14:10:42.198Z,0.57
2022-08-07T14:13:16.123Z,0.50
2022-08-07T14:15:44.342Z,0.55
2022-08-07T14:18:33.879Z,0.50
2022-08-07T14:21:20.944Z,0.47
2022-08-07T14:24:08.642Z,0.60
2022-08-07T14:27:16.142Z,0.50
2022-08-07T14:30:06.276Z,0.40
2022-08-07T14:32:47.907Z,0.47
2022-08-07T14:35:45.760Z,0.50
2022-08-07T14:38:26.615Z,0.65
2022-08-07T14:41:04.213Z,0.52
2022-08-07T14:46:30.551Z,0.40
2022-08-07T14:48:59.174Z,0.50
2022-08-07T14:52:03.759Z,0.40
2022-08-07T14:54:34.586Z,0.47
2022-08-07T14:57:04.142Z,0.50
2022-08-07T15:00:06.125Z,0.50
2022-08-07T15:02:32.963Z,0.60
2022-08-07T15:05:01.663Z,0.40
2022-08-07T15:07:50.998Z,0.60
2022-08-07T15:10:26.556Z,0.50
2022-08-07T15:16:00.299Z,0.50
2022-08-07T15:18:36.214Z,0.60
2022-08-07T15:21:43.984Z,0.50
2022-08-07T15:25:15.913Z,0.45
2022-08-07T15:26:59.480Z,0.47
2022-08-07T15:30:08.800Z,0.40
2022-08-07T15:32:39.450Z,0.50
2022-08-07T15:35:17.034Z,0.40
2022-08-07T15:40:34.341Z,0.30
2022-08-07T15:43:53.605Z,0.35
2022-08-07T15:46:04.506Z,0.40
2022-08-07T15:54:20.079Z,0.40
2022-08-07T15:56:48.287Z,0.40
2022-08-07T15:59:17.331Z,0.50
2022-08-07T16:02:01.656Z,0.45
2022-08-07T16:04:30.395Z,0.38
2022-08-07T16:07:00.574Z,0.40
2022-08-07T16:09:47.249Z,0.32
2022-08-07T16:12:31.621Z,0.40
2022-08-07T16:15:03.078Z,0.40
2022-08-07T16:18:02.421Z,0.40
2022-08-07T16:20:37.426Z,0.40
2022-08-07T16:23:53.753Z,0.50
2022-08-07T16:26:30.914Z,0.30
2022-08-07T16:30:07.580Z,0.32
2022-08-07T16:32:34.638Z,0.30
2022-08-07T16:35:57.046Z,0.30
2022-08-07T16:39:00.674Z,0.30
2022-08-07T16:41:41.434Z,0.40
2022-08-07T16:44:53.830Z,0.35
2022-08-07T16:47:56.402Z,0.35
2022-08-07T16:50:36.945Z,0.32
2022-08-07T16:54:01.738Z,0.30
2022-08-07T16:56:19.641Z,0.30
2022-08-07T16:59:17.253Z,0.30
2022-08-07T17:02:02.925Z,0.22
2022-08-07T17:04:50.824Z,0.30
2022-08-07T17:07:51.468Z,0.20
2022-08-07T17:10:54.284Z,0.30
2022-08-07T17:13:41.652Z,0.30
2022-08-07T17:16:43.707Z,0.32
2022-08-07T17:20:00.306Z,0.22
2022-08-07T17:22:15.554Z,0.28
2022-08-07T17:24:52.223Z,0.22
2022-08-07T17:27:32.585Z,0.28
2022-08-07T17:30:14.101Z,0.22
2022-08-07T17:33:39.145Z,0.30
2022-08-07T17:36:21.133Z,0.22
2022-08-07T17:39:15.704Z,0.30
2022-08-07T17:42:06.469Z,0.25
2022-08-07T17:44:50.649Z,0.45
2022-08-07T17:47:42.282Z,0.30
2022-08-07T17:50:30.275Z,0.30
2022-08-07T17:53:06.033Z,0.30
2022-08-07T17:56:01.172Z,0.20
2022-08-07T17:58:40.562Z,0.20
2022-08-07T18:01:36.583Z,0.30
2022-08-07T18:04:35.091Z,0.20
2022-08-07T18:07:20.130Z,0.30
2022-08-07T18:10:07.391Z,0.40
2022-08-07T18:13:09.592Z,0.47
2022-08-07T18:16:12.955Z,0.40
2022-08-07T18:21:08.957Z,0.30
2022-08-07T18:22:00.417Z,0.30
2022-08-07T18:24:35.509Z,0.30
2022-08-07T18:27:17.335Z,0.30
2022-08-07T18:30:06.480Z,0.30
2022-08-07T18:32:46.311Z,0.28
2022-08-07T18:35:52.059Z,0.30
2022-08-07T18:38:56.457Z,0.30
2022-08-07T18:42:00.600Z,0.30
2022-08-07T18:45:44.620Z,0.30
2022-08-07T18:48:05.738Z,0.40
2022-08-07T18:50:45.986Z,0.32
2022-08-07T18:53:16.612Z,0.32
2022-08-07T18:56:06.113Z,0.40
2022-08-07T18:58:52.304Z,0.30
2022-08-07T19:02:20.082Z,0.40
2022-08-07T19:05:15.600Z,0.50
2022-08-07T19:07:58.809Z,0.40
2022-08-07T19:10:31.322Z,0.38
2022-08-07T19:13:11.725Z,0.40
2022-08-07T19:16:05.756Z,0.60
2022-08-07T19:18:46.508Z,0.43
2022-08-07T19:21:51.198Z,0.68
2022-08-07T19:24:30.713Z,0.60
2022-08-07T19:28:30.911Z,0.50
2022-08-07T19:31:05.261Z,0.40
2022-08-07T19:32:44.578Z,0.50
2022-08-07T19:35:22.521Z,0.60
2022-08-07T19:37:57.212Z,0.50
2022-08-07T19:40:31.307Z,0.50
2022-08-07T19:43:08.736Z,0.43
2022-08-07T19:46:07.204Z,0.60
2022-08-07T19:48:42.937Z,0.50
2022-08-07T19:51:19.944Z,0.52
2022-08-07T19:54:31.283Z,0.70
2022-08-07T19:58:04.126Z,0.60
2022-08-07T19:59:39.822Z,0.60
2022-08-07T20:02:18.885Z,0.50
2022-08-07T20:04:49.360Z,0.70
2022-08-07T20:07:23.966Z,0.50
2022-08-07T20:10:35.848Z,0.60
2022-08-07T20:12:52.165Z,0.80
2022-08-07T20:15:22.342Z,0.65
2022-08-07T20:17:56.339Z,0.52
2022-08-07T20:20:30.400Z,0.50
2022-08-07T20:23:00.181Z,0.63
2022-08-07T20:25:28.335Z,0.50
2022-08-07T20:27:58.885Z,0.57
2022-08-07T20:30:34.788Z,0.68
2022-08-07T20:33:03.104Z,0.70
2022-08-07T20:35:51.826Z,0.70
2022-08-07T20:38:21.674Z,0.55
2022-08-07T20:40:56.659Z,0.68
2022-08-07T20:43:26.785Z,0.70
2022-08-07T20:46:26.776Z,0.60
2022-08-07T20:48:58.012Z,0.50
2022-08-07T20:51:29.879Z,0.50
2022-08-07T20:54:03.344Z,0.80
2022-08-07T20:56:40.873Z,0.60
2022-08-07T21:00:05.012Z,0.63
2022-08-07T21:02:01.646Z,0.75
2022-08-07T21:04:29.414Z,0.80
2022-08-07T21:07:04.376Z,0.77
2022-08-07T21:09:53.222Z,0.80
2022-08-07T21:12:30.678Z,0.80
2022-08-07T21:14:59.598Z,0.73
2022-08-07T21:18:03.269Z,0.70
2022-08-07T21:20:19.068Z,0.80
2022-08-07T21:22:58.248Z,0.80
2022-08-07T21:25:42.672Z,0.80
2022-08-07T21:28:48.516Z,0.80
2022-08-07T21:31:49.826Z,0.60
2022-08-07T21:34:20.471Z,1.00
2022-08-07T21:37:21.282Z,0.80
2022-08-07T21:40:03.339Z,1.08
2022-08-07T21:42:48.489Z,0.82
2022-08-07T21:46:11.288Z,0.70
2022-08-07T21:48:29.092Z,0.80
2022-08-07T21:51:32.533Z,0.75
2022-08-07T21:54:11.410Z,0.80
2022-08-07T21:56:59.803Z,0.80
2022-08-07T21:59:26.934Z,0.70
2022-08-07T22:02:07.647Z,0.88
2022-08-07T22:04:51.114Z,0.90
2022-08-07T22:07:31.921Z,0.70
2022-08-07T22:10:24.641Z,0.93
2022-08-07T22:12:54.109Z,0.70
2022-08-07T22:16:42.500Z,0.90
2022-08-07T22:18:37.563Z,0.60
2022-08-07T22:21:19.207Z,1.02
2022-08-07T22:24:09.784Z,0.75
2022-08-07T22:26:44.600Z,0.70
2022-08-07T22:29:48.114Z,0.73
2022-08-07T22:32:42.140Z,0.70
2022-08-07T22:35:11.240Z,0.70
2022-08-07T22:38:04.489Z,0.70
2022-08-07T22:40:53.333Z,0.70
2022-08-07T22:43:50.328Z,0.93
2022-08-07T22:47:01.905Z,0.90
2022-08-07T22:49:33.901Z,0.90
2022-08-07T22:52:37.934Z,0.75
2022-08-07T22:55:45.274Z,0.85
2022-08-07T22:58:15.509Z,0.77
2022-08-07T23:01:05.477Z,0.85
2022-08-07T23:03:57.532Z,1.02
2022-08-07T23:06:52.502Z,0.90
2022-08-07T23:10:06.251Z,0.85
2022-08-07T23:12:34.332Z,1.17
2022-08-07T23:16:05.785Z,1.02
2022-08-07T23:19:13.805Z,1.20
2022-08-07T23:21:55.167Z,0.90
2022-08-07T23:24:45.670Z,0.80
2022-08-07T23:28:21.757Z,0.80
2022-08-07T23:31:11.592Z,1.10
2022-08-07T23:34:34.244Z,0.90
2022-08-07T23:37:19.329Z,0.88
2022-08-07T23:40:25.215Z,1.00
2022-08-07T23:42:58.264Z,1.17
2022-08-07T23:46:10.663Z,1.10
2022-08-07T23:48:58.579Z,0.90
2022-08-07T23:53:05.675Z,1.15
2022-08-07T23:54:52.825Z,0.90
2022-08-07T23:57:48.748Z,1.40
